sensor_id;sensor_type;location;lat;lon;timestamp;pressure;altitude;pressure_sealevel;temperature;humidity
30636;BME280;17400;52.392;9.750;2024-03-29T00:02:14;98906.75;;;9.14;94.70
30636;BME280;17400;52.392;9.750;2024-03-29T00:04:40;98903.00;;;9.15;94.47
30636;BME280;17400;52.392;9.750;2024-03-29T00:07:06;98900.91;;;9.17;95.04
30636;BME280;17400;52.392;9.750;2024-03-29T00:09:32;98899.03;;;9.17;94.27
30636;BME280;17400;52.392;9.750;2024-03-29T00:11:59;98904.44;;;9.17;94.52
30636;BME280;17400;52.392;9.750;2024-03-29T00:14:25;98900.91;;;9.17;94.73
30636;BME280;17400;52.392;9.750;2024-03-29T00:16:51;98906.91;;;9.19;94.86
30636;BME280;17400;52.392;9.750;2024-03-29T00:19:19;98894.25;;;9.20;94.28
30636;BME280;17400;52.392;9.750;2024-03-29T00:21:45;98900.69;;;9.19;95.14
30636;BME280;17400;52.392;9.750;2024-03-29T00:24:11;98895.03;;;9.20;95.00
30636;BME280;17400;52.392;9.750;2024-03-29T00:26:37;98896.94;;;9.20;94.90
30636;BME280;17400;52.392;9.750;2024-03-29T00:29:03;98912.91;;;9.21;94.83
30636;BME280;17400;52.392;9.750;2024-03-29T00:31:29;98902.34;;;9.20;94.04
30636;BME280;17400;52.392;9.750;2024-03-29T00:33:55;98901.38;;;9.14;94.16
30636;BME280;17400;52.392;9.750;2024-03-29T00:36:23;98897.63;;;9.15;94.12
30636;BME280;17400;52.392;9.750;2024-03-29T00:38:49;98899.03;;;9.17;94.77
30636;BME280;17400;52.392;9.750;2024-03-29T00:41:15;98902.53;;;9.18;94.79
30636;BME280;17400;52.392;9.750;2024-03-29T00:43:41;98901.72;;;9.17;94.39
30636;BME280;17400;52.392;9.750;2024-03-29T00:46:08;98894.69;;;9.16;94.51
30636;BME280;17400;52.392;9.750;2024-03-29T00:48:35;98898.22;;;9.17;94.32
30636;BME280;17400;52.392;9.750;2024-03-29T00:51:01;98887.66;;;9.15;94.16
30636;BME280;17400;52.392;9.750;2024-03-29T00:53:28;98898.34;;;9.10;93.64
30636;BME280;17400;52.392;9.750;2024-03-29T00:55:54;98888.34;;;9.11;94.14
30636;BME280;17400;52.392;9.750;2024-03-29T00:58:20;98896.19;;;9.12;93.90
30636;BME280;17400;52.392;9.750;2024-03-29T01:00:47;98884.84;;;9.10;93.10
30636;BME280;17400;52.392;9.750;2024-03-29T01:03:13;98910.19;;;9.09;92.68
30636;BME280;17400;52.392;9.750;2024-03-29T01:05:39;98918.94;;;9.05;92.92
30636;BME280;17400;52.392;9.750;2024-03-29T01:08:06;98918.81;;;8.99;91.94
30636;BME280;17400;52.392;9.750;2024-03-29T01:10:33;98891.38;;;9.03;93.05
30636;BME280;17400;52.392;9.750;2024-03-29T01:12:59;98902.75;;;9.05;92.74
30636;BME280;17400;52.392;9.750;2024-03-29T01:15:25;98907.09;;;9.06;92.87
30636;BME280;17400;52.392;9.750;2024-03-29T01:17:51;98911.22;;;9.08;93.12
30636;BME280;17400;52.392;9.750;2024-03-29T01:20:17;98906.88;;;9.07;93.60
30636;BME280;17400;52.392;9.750;2024-03-29T01:22:43;98898.78;;;9.07;93.46
30636;BME280;17400;52.392;9.750;2024-03-29T01:25:09;98893.97;;;9.09;93.54
30636;BME280;17400;52.392;9.750;2024-03-29T01:27:37;98902.06;;;9.09;93.73
30636;BME280;17400;52.392;9.750;2024-03-29T01:30:04;98896.91;;;9.08;94.18
30636;BME280;17400;52.392;9.750;2024-03-29T01:32:30;98906.88;;;9.07;93.84
30636;BME280;17400;52.392;9.750;2024-03-29T01:34:56;98904.66;;;9.04;93.69
30636;BME280;17400;52.392;9.750;2024-03-29T01:37:22;98907.34;;;9.04;94.16
30636;BME280;17400;52.392;9.750;2024-03-29T01:39:48;98909.69;;;9.00;93.80
30636;BME280;17400;52.392;9.750;2024-03-29T01:42:14;98900.78;;;9.00;94.54
30636;BME280;17400;52.392;9.750;2024-03-29T01:44:42;98893.72;;;8.99;95.02
30636;BME280;17400;52.392;9.750;2024-03-29T01:47:09;98894.19;;;8.96;94.53
30636;BME280;17400;52.392;9.750;2024-03-29T01:49:36;98900.03;;;8.93;94.94
30636;BME280;17400;52.392;9.750;2024-03-29T01:52:04;98901.69;;;8.94;95.86
30636;BME280;17400;52.392;9.750;2024-03-29T01:54:31;98893.59;;;8.94;95.51
30636;BME280;17400;52.392;9.750;2024-03-29T01:56:59;98900.03;;;8.93;96.00
30636;BME280;17400;52.392;9.750;2024-03-29T01:59:27;98897.34;;;8.93;95.67
30636;BME280;17400;52.392;9.750;2024-03-29T02:01:56;98899.22;;;8.92;96.08
30636;BME280;17400;52.392;9.750;2024-03-29T02:04:24;98908.59;;;8.90;95.54
30636;BME280;17400;52.392;9.750;2024-03-29T02:06:51;98903.19;;;8.90;95.62
30636;BME280;17400;52.392;9.750;2024-03-29T02:09:18;98905.66;;;8.91;95.76
30636;BME280;17400;52.392;9.750;2024-03-29T02:11:45;98920.00;;;8.92;95.89
30636;BME280;17400;52.392;9.750;2024-03-29T02:14:12;98929.59;;;8.88;95.00
30636;BME280;17400;52.392;9.750;2024-03-29T02:16:39;98935.44;;;8.84;95.41
30636;BME280;17400;52.392;9.750;2024-03-29T02:19:09;98935.69;;;8.83;95.74
30636;BME280;17400;52.392;9.750;2024-03-29T02:21:41;98938.38;;;8.83;95.59
30636;BME280;17400;52.392;9.750;2024-03-29T02:24:12;98940.03;;;8.84;95.80
30636;BME280;17400;52.392;9.750;2024-03-29T02:26:41;98935.31;;;8.79;94.82
30636;BME280;17400;52.392;9.750;2024-03-29T02:29:08;98936.97;;;8.80;95.57
30636;BME280;17400;52.392;9.750;2024-03-29T02:31:35;98934.25;;;8.80;95.68
30636;BME280;17400;52.392;9.750;2024-03-29T02:34:03;98928.06;;;8.80;95.19
30636;BME280;17400;52.392;9.750;2024-03-29T02:36:30;98915.97;;;8.82;95.99
30636;BME280;17400;52.392;9.750;2024-03-29T02:38:57;98907.75;;;8.77;95.02
30636;BME280;17400;52.392;9.750;2024-03-29T02:41:25;98917.13;;;8.75;95.10
30636;BME280;17400;52.392;9.750;2024-03-29T02:43:55;98921.47;;;8.76;95.62
30636;BME280;17400;52.392;9.750;2024-03-29T02:46:23;98912.16;;;8.72;95.82
30636;BME280;17400;52.392;9.750;2024-03-29T02:48:50;98906.56;;;8.73;96.67
30636;BME280;17400;52.392;9.750;2024-03-29T02:51:16;98913.00;;;8.72;95.44
30636;BME280;17400;52.392;9.750;2024-03-29T02:53:43;98901.97;;;8.74;96.03
30636;BME280;17400;52.392;9.750;2024-03-29T02:56:09;98892.47;;;8.71;95.74
30636;BME280;17400;52.392;9.750;2024-03-29T02:58:37;98894.00;;;8.67;95.55
30636;BME280;17400;52.392;9.750;2024-03-29T03:01:07;98896.69;;;8.67;96.02
30636;BME280;17400;52.392;9.750;2024-03-29T03:03:34;98877.81;;;8.67;97.00
30636;BME280;17400;52.392;9.750;2024-03-29T03:06:01;98865.00;;;8.62;96.49
30636;BME280;17400;52.392;9.750;2024-03-29T03:08:29;98872.13;;;8.57;96.45
30636;BME280;17400;52.392;9.750;2024-03-29T03:11:13;98859.47;;;8.57;97.35
30636;BME280;17400;52.392;9.750;2024-03-29T03:13:41;98864.84;;;8.57;97.18
30636;BME280;17400;52.392;9.750;2024-03-29T03:16:07;98858.88;;;8.55;96.98
30636;BME280;17400;52.392;9.750;2024-03-29T03:18:34;98865.31;;;8.54;96.79
30636;BME280;17400;52.392;9.750;2024-03-29T03:21:00;98868.16;;;8.59;96.96
30636;BME280;17400;52.392;9.750;2024-03-29T03:23:28;98876.00;;;8.61;96.64
30636;BME280;17400;52.392;9.750;2024-03-29T03:25:55;98882.91;;;8.57;96.74
30636;BME280;17400;52.392;9.750;2024-03-29T03:28:22;98892.19;;;8.61;97.69
30636;BME280;17400;52.392;9.750;2024-03-29T03:30:51;98894.53;;;8.57;97.22
30636;BME280;17400;52.392;9.750;2024-03-29T03:33:17;98900.75;;;8.58;97.83
30636;BME280;17400;52.392;9.750;2024-03-29T03:35:44;98895.59;;;8.56;98.00
30636;BME280;17400;52.392;9.750;2024-03-29T03:38:10;98904.25;;;8.58;97.76
30636;BME280;17400;52.392;9.750;2024-03-29T03:40:38;98902.25;;;8.54;97.81
30636;BME280;17400;52.392;9.750;2024-03-29T03:43:05;98896.72;;;8.48;98.70
30636;BME280;17400;52.392;9.750;2024-03-29T03:45:36;98890.72;;;8.46;98.90
30636;BME280;17400;52.392;9.750;2024-03-29T03:48:04;98886.09;;;8.54;99.25
30636;BME280;17400;52.392;9.750;2024-03-29T03:50:31;98881.03;;;8.57;98.44
30636;BME280;17400;52.392;9.750;2024-03-29T03:52:58;98884.94;;;8.61;98.45
30636;BME280;17400;52.392;9.750;2024-03-29T03:55:25;98883.28;;;8.60;98.64
30636;BME280;17400;52.392;9.750;2024-03-29T03:57:51;98878.47;;;8.62;98.48
30636;BME280;17400;52.392;9.750;2024-03-29T04:00:18;98870.84;;;8.59;98.95
30636;BME280;17400;52.392;9.750;2024-03-29T04:02:47;98872.75;;;8.59;99.41
30636;BME280;17400;52.392;9.750;2024-03-29T04:05:16;98873.91;;;8.63;99.11
30636;BME280;17400;52.392;9.750;2024-03-29T04:07:42;98874.72;;;8.63;99.03
30636;BME280;17400;52.392;9.750;2024-03-29T04:10:09;98871.00;;;8.64;99.09
30636;BME280;17400;52.392;9.750;2024-03-29T04:12:36;98871.00;;;8.64;98.81
30636;BME280;17400;52.392;9.750;2024-03-29T04:15:03;98871.81;;;8.65;98.25
30636;BME280;17400;52.392;9.750;2024-03-29T04:17:31;98875.69;;;8.69;98.50
30636;BME280;17400;52.392;9.750;2024-03-29T04:19:57;98866.91;;;8.74;98.31
30636;BME280;17400;52.392;9.750;2024-03-29T04:22:27;98878.75;;;8.73;97.23
30636;BME280;17400;52.392;9.750;2024-03-29T04:24:53;98872.97;;;8.69;97.31
30636;BME280;17400;52.392;9.750;2024-03-29T04:27:20;98884.97;;;8.73;96.88
30636;BME280;17400;52.392;9.750;2024-03-29T04:29:46;98875.81;;;8.74;96.55
30636;BME280;17400;52.392;9.750;2024-03-29T04:32:13;98885.78;;;8.74;95.88
30636;BME280;17400;52.392;9.750;2024-03-29T04:34:39;98885.31;;;8.77;95.92
30636;BME280;17400;52.392;9.750;2024-03-29T04:37:06;98883.91;;;8.74;95.83
30636;BME280;17400;52.392;9.750;2024-03-29T04:39:34;98884.97;;;8.73;95.73
30636;BME280;17400;52.392;9.750;2024-03-29T04:42:01;98883.72;;;8.76;95.46
30636;BME280;17400;52.392;9.750;2024-03-29T04:44:28;98888.25;;;8.75;95.24
30636;BME280;17400;52.392;9.750;2024-03-29T04:46:55;98888.63;;;8.79;95.32
30636;BME280;17400;52.392;9.750;2024-03-29T04:49:23;98892.59;;;8.76;95.54
30636;BME280;17400;52.392;9.750;2024-03-29T04:51:56;98898.59;;;8.78;95.01
30636;BME280;17400;52.392;9.750;2024-03-29T04:54:23;98897.53;;;8.79;94.72
30636;BME280;17400;52.392;9.750;2024-03-29T04:56:51;98900.84;;;8.81;94.61
30636;BME280;17400;52.392;9.750;2024-03-29T04:59:18;98916.88;;;8.76;94.35
30636;BME280;17400;52.392;9.750;2024-03-29T05:01:46;98922.16;;;8.71;94.02
30636;BME280;17400;52.392;9.750;2024-03-29T05:04:16;98927.69;;;8.76;93.87
30636;BME280;17400;52.392;9.750;2024-03-29T05:06:51;98933.22;;;8.81;93.85
30636;BME280;17400;52.392;9.750;2024-03-29T05:09:18;98936.72;;;8.82;94.42
30636;BME280;17400;52.392;9.750;2024-03-29T05:11:45;98943.53;;;8.84;94.32
30636;BME280;17400;52.392;9.750;2024-03-29T05:14:14;98940.38;;;8.88;94.35
30636;BME280;17400;52.392;9.750;2024-03-29T05:16:42;98957.63;;;8.87;94.56
30636;BME280;17400;52.392;9.750;2024-03-29T05:19:09;98965.50;;;8.88;94.83
30636;BME280;17400;52.392;9.750;2024-03-29T05:21:36;98957.16;;;8.90;95.83
30636;BME280;17400;52.392;9.750;2024-03-29T05:24:04;98953.66;;;8.89;95.64
30636;BME280;17400;52.392;9.750;2024-03-29T05:26:31;98971.84;;;8.94;96.11
30636;BME280;17400;52.392;9.750;2024-03-29T05:28:58;98982.66;;;8.94;96.56
30636;BME280;17400;52.392;9.750;2024-03-29T05:31:26;98983.25;;;8.96;96.76
30636;BME280;17400;52.392;9.750;2024-03-29T05:33:54;99006.59;;;9.02;97.41
30636;BME280;17400;52.392;9.750;2024-03-29T05:36:21;99006.84;;;9.00;97.15
30636;BME280;17400;52.392;9.750;2024-03-29T05:38:49;99006.97;;;9.06;98.20
30636;BME280;17400;52.392;9.750;2024-03-29T05:41:16;99003.47;;;9.05;97.84
30636;BME280;17400;52.392;9.750;2024-03-29T05:43:43;99001.22;;;9.02;98.73
30636;BME280;17400;52.392;9.750;2024-03-29T05:46:09;99001.97;;;9.09;98.71
30636;BME280;17400;52.392;9.750;2024-03-29T05:48:39;99008.53;;;9.13;99.88
30636;BME280;17400;52.392;9.750;2024-03-29T05:51:06;99012.28;;;9.12;99.42
30636;BME280;17400;52.392;9.750;2024-03-29T05:53:33;99007.94;;;9.11;100.00
30636;BME280;17400;52.392;9.750;2024-03-29T05:56:00;99008.16;;;9.10;100.00
30636;BME280;17400;52.392;9.750;2024-03-29T05:58:27;99022.84;;;9.14;100.00
30636;BME280;17400;52.392;9.750;2024-03-29T06:00:54;99027.56;;;9.19;100.00
30636;BME280;17400;52.392;9.750;2024-03-29T06:03:20;99024.75;;;9.13;100.00
30636;BME280;17400;52.392;9.750;2024-03-29T06:05:49;99032.38;;;9.16;100.00
30636;BME280;17400;52.392;9.750;2024-03-29T06:08:16;99024.25;;;9.16;100.00
30636;BME280;17400;52.392;9.750;2024-03-29T06:10:43;99030.84;;;9.21;100.00
30636;BME280;17400;52.392;9.750;2024-03-29T06:13:11;99036.63;;;9.24;100.00
30636;BME280;17400;52.392;9.750;2024-03-29T06:15:53;99034.28;;;9.28;100.00
30636;BME280;17400;52.392;9.750;2024-03-29T06:18:38;99044.41;;;9.32;100.00
30636;BME280;17400;52.392;9.750;2024-03-29T06:21:06;99048.97;;;9.32;100.00
30636;BME280;17400;52.392;9.750;2024-03-29T06:23:33;99053.56;;;9.31;100.00
30636;BME280;17400;52.392;9.750;2024-03-29T06:26:00;99056.03;;;9.33;100.00
30636;BME280;17400;52.392;9.750;2024-03-29T06:28:28;99048.50;;;9.35;100.00
30636;BME280;17400;52.392;9.750;2024-03-29T06:30:55;99041.81;;;9.38;100.00
30636;BME280;17400;52.392;9.750;2024-03-29T06:33:22;99037.72;;;9.35;100.00
30636;BME280;17400;52.392;9.750;2024-03-29T06:35:53;99039.38;;;9.36;100.00
30636;BME280;17400;52.392;9.750;2024-03-29T06:38:21;99035.00;;;9.35;100.00
30636;BME280;17400;52.392;9.750;2024-03-29T06:40:48;99031.03;;;9.38;100.00
30636;BME280;17400;52.392;9.750;2024-03-29T06:43:15;99018.47;;;9.31;100.00
30636;BME280;17400;52.392;9.750;2024-03-29T06:45:42;99027.63;;;9.30;100.00
30636;BME280;17400;52.392;9.750;2024-03-29T06:48:10;99019.94;;;9.27;100.00
30636;BME280;17400;52.392;9.750;2024-03-29T06:50:37;98999.44;;;9.26;100.00
30636;BME280;17400;52.392;9.750;2024-03-29T06:53:06;98995.88;;;9.26;100.00
30636;BME280;17400;52.392;9.750;2024-03-29T06:55:36;98996.84;;;9.20;100.00
30636;BME280;17400;52.392;9.750;2024-03-29T06:58:04;98991.88;;;9.16;100.00
30636;BME280;17400;52.392;9.750;2024-03-29T07:00:31;98972.41;;;9.14;100.00
30636;BME280;17400;52.392;9.750;2024-03-29T07:02:58;98978.13;;;9.18;100.00
30636;BME280;17400;52.392;9.750;2024-03-29T07:05:25;98977.69;;;9.21;100.00
30636;BME280;17400;52.392;9.750;2024-03-29T07:07:52;98972.41;;;9.14;100.00
30636;BME280;17400;52.392;9.750;2024-03-29T07:10:19;98969.84;;;9.20;100.00
30636;BME280;17400;52.392;9.750;2024-03-29T07:12:48;98970.75;;;9.13;100.00
30636;BME280;17400;52.392;9.750;2024-03-29T07:15:15;98967.00;;;9.14;100.00
30636;BME280;17400;52.392;9.750;2024-03-29T07:17:42;98961.00;;;9.12;100.00
30636;BME280;17400;52.392;9.750;2024-03-29T07:20:10;98962.50;;;9.08;100.00
30636;BME280;17400;52.392;9.750;2024-03-29T07:22:37;98965.91;;;9.04;100.00
30636;BME280;17400;52.392;9.750;2024-03-29T07:25:05;98957.59;;;9.05;100.00
30636;BME280;17400;52.392;9.750;2024-03-29T07:27:32;98951.81;;;9.02;100.00
30636;BME280;17400;52.392;9.750;2024-03-29T07:30:03;98940.09;;;9.08;100.00
30636;BME280;17400;52.392;9.750;2024-03-29T07:32:30;98936.00;;;9.05;100.00
30636;BME280;17400;52.392;9.750;2024-03-29T07:34:57;98931.78;;;9.09;100.00
30636;BME280;17400;52.392;9.750;2024-03-29T07:37:25;98917.81;;;9.12;100.00
30636;BME280;17400;52.392;9.750;2024-03-29T07:39:52;98922.03;;;9.08;100.00
30636;BME280;17400;52.392;9.750;2024-03-29T07:42:19;98913.69;;;9.10;100.00
30636;BME280;17400;52.392;9.750;2024-03-29T07:44:46;98915.56;;;9.09;100.00
30636;BME280;17400;52.392;9.750;2024-03-29T07:47:15;98921.34;;;9.13;100.00
30636;BME280;17400;52.392;9.750;2024-03-29T07:49:42;98921.22;;;9.08;100.00
30636;BME280;17400;52.392;9.750;2024-03-29T07:52:09;98929.19;;;9.14;100.00
30636;BME280;17400;52.392;9.750;2024-03-29T07:54:36;98928.97;;;9.16;100.00
30636;BME280;17400;52.392;9.750;2024-03-29T07:57:04;98912.06;;;9.21;100.00
30636;BME280;17400;52.392;9.750;2024-03-29T07:59:34;98902.44;;;9.37;100.00
30636;BME280;17400;52.392;9.750;2024-03-29T08:02:01;98901.75;;;9.41;100.00
30636;BME280;17400;52.392;9.750;2024-03-29T08:04:30;98898.59;;;9.44;100.00
30636;BME280;17400;52.392;9.750;2024-03-29T08:06:57;98911.88;;;9.34;100.00
30636;BME280;17400;52.392;9.750;2024-03-29T08:09:24;98897.41;;;9.40;100.00
30636;BME280;17400;52.392;9.750;2024-03-29T08:11:51;98900.22;;;9.33;100.00
30636;BME280;17400;52.392;9.750;2024-03-29T08:14:18;98895.41;;;9.24;100.00
30636;BME280;17400;52.392;9.750;2024-03-29T08:16:45;98891.75;;;9.30;100.00
30636;BME280;17400;52.392;9.750;2024-03-29T08:19:12;98893.41;;;9.31;100.00
30636;BME280;17400;52.392;9.750;2024-03-29T08:21:40;98888.84;;;9.43;100.00
30636;BME280;17400;52.392;9.750;2024-03-29T08:24:08;98886.25;;;9.60;100.00
30636;BME280;17400;52.392;9.750;2024-03-29T08:26:35;98879.66;;;9.68;100.00
30636;BME280;17400;52.392;9.750;2024-03-29T08:29:02;98869.09;;;9.66;100.00
30636;BME280;17400;52.392;9.750;2024-03-29T08:31:29;98865.72;;;9.71;100.00
30636;BME280;17400;52.392;9.750;2024-03-29T08:33:56;98867.81;;;9.57;100.00
30636;BME280;17400;52.392;9.750;2024-03-29T08:36:24;98863.34;;;9.63;100.00
30636;BME280;17400;52.392;9.750;2024-03-29T08:38:52;98888.38;;;9.70;100.00
30636;BME280;17400;52.392;9.750;2024-03-29T08:41:19;98867.31;;;9.72;100.00
30636;BME280;17400;52.392;9.750;2024-03-29T08:43:47;98866.72;;;9.94;100.00
30636;BME280;17400;52.392;9.750;2024-03-29T08:46:14;98869.84;;;10.03;100.00
30636;BME280;17400;52.392;9.750;2024-03-29T08:48:41;98891.22;;;10.16;100.00
30636;BME280;17400;52.392;9.750;2024-03-29T08:51:09;98894.66;;;10.11;100.00
30636;BME280;17400;52.392;9.750;2024-03-29T08:53:36;98906.78;;;9.97;100.00
30636;BME280;17400;52.392;9.750;2024-03-29T08:56:05;98909.50;;;9.97;100.00
30636;BME280;17400;52.392;9.750;2024-03-29T08:58:32;98911.38;;;9.96;100.00
30636;BME280;17400;52.392;9.750;2024-03-29T09:00:59;98912.91;;;10.04;100.00
30636;BME280;17400;52.392;9.750;2024-03-29T09:03:29;98910.41;;;9.91;100.00
30636;BME280;17400;52.392;9.750;2024-03-29T09:05:56;98912.66;;;9.94;100.00
30636;BME280;17400;52.392;9.750;2024-03-29T09:08:24;98908.19;;;9.99;100.00
30636;BME280;17400;52.392;9.750;2024-03-29T09:10:51;98923.00;;;9.97;100.00
30636;BME280;17400;52.392;9.750;2024-03-29T09:13:19;98893.75;;;9.94;100.00
30636;BME280;17400;52.392;9.750;2024-03-29T09:15:47;98901.94;;;10.11;100.00
30636;BME280;17400;52.392;9.750;2024-03-29T09:18:15;98896.03;;;10.26;100.00
30636;BME280;17400;52.392;9.750;2024-03-29T09:20:56;98882.38;;;10.32;100.00
30636;BME280;17400;52.392;9.750;2024-03-29T09:23:23;98893.78;;;10.34;100.00
30636;BME280;17400;52.392;9.750;2024-03-29T09:25:51;98889.88;;;10.42;100.00
30636;BME280;17400;52.392;9.750;2024-03-29T09:28:19;98874.81;;;10.46;100.00
30636;BME280;17400;52.392;9.750;2024-03-29T09:30:47;98871.22;;;10.58;100.00
30636;BME280;17400;52.392;9.750;2024-03-29T09:33:14;98865.06;;;10.74;100.00
30636;BME280;17400;52.392;9.750;2024-03-29T09:35:41;98864.06;;;10.80;100.00
30636;BME280;17400;52.392;9.750;2024-03-29T09:38:09;98865.38;;;10.95;100.00
30636;BME280;17400;52.392;9.750;2024-03-29T09:40:36;98865.06;;;11.08;100.00
30636;BME280;17400;52.392;9.750;2024-03-29T09:43:04;98873.94;;;11.21;100.00
30636;BME280;17400;52.392;9.750;2024-03-29T09:45:34;98870.47;;;11.42;100.00
30636;BME280;17400;52.392;9.750;2024-03-29T09:48:03;98870.47;;;11.42;100.00
30636;BME280;17400;52.392;9.750;2024-03-29T09:50:31;98876.22;;;11.46;100.00
30636;BME280;17400;52.392;9.750;2024-03-29T09:52:59;98879.06;;;11.56;100.00
30636;BME280;17400;52.392;9.750;2024-03-29T09:55:27;98866.88;;;11.54;100.00
30636;BME280;17400;52.392;9.750;2024-03-29T09:57:54;98862.69;;;11.68;100.00
30636;BME280;17400;52.392;9.750;2024-03-29T10:00:23;98865.66;;;11.66;100.00
30636;BME280;17400;52.392;9.750;2024-03-29T10:02:53;98873.97;;;11.60;100.00
30636;BME280;17400;52.392;9.750;2024-03-29T10:05:22;98870.19;;;11.61;100.00
30636;BME280;17400;52.392;9.750;2024-03-29T10:07:51;98876.69;;;11.60;100.00
30636;BME280;17400;52.392;9.750;2024-03-29T10:10:18;98880.69;;;11.74;100.00
30636;BME280;17400;52.392;9.750;2024-03-29T10:12:45;98900.31;;;11.81;100.00
30636;BME280;17400;52.392;9.750;2024-03-29T10:15:12;98898.31;;;11.94;100.00
30636;BME280;17400;52.392;9.750;2024-03-29T10:17:45;98892.66;;;11.95;100.00
30636;BME280;17400;52.392;9.750;2024-03-29T10:20:17;98882.41;;;11.97;100.00
30636;BME280;17400;52.392;9.750;2024-03-29T10:22:45;98887.06;;;12.02;100.00
30636;BME280;17400;52.392;9.750;2024-03-29T10:25:13;98883.22;;;11.98;100.00
30636;BME280;17400;52.392;9.750;2024-03-29T10:27:40;98883.81;;;11.83;100.00
30636;BME280;17400;52.392;9.750;2024-03-29T10:30:09;98886.75;;;11.81;100.00
30636;BME280;17400;52.392;9.750;2024-03-29T10:32:37;98883.94;;;11.93;100.00
30636;BME280;17400;52.392;9.750;2024-03-29T10:35:05;98894.69;;;12.05;100.00
30636;BME280;17400;52.392;9.750;2024-03-29T10:37:33;98895.06;;;12.14;100.00
30636;BME280;17400;52.392;9.750;2024-03-29T10:40:07;98899.44;;;12.15;100.00
30636;BME280;17400;52.392;9.750;2024-03-29T10:42:36;98896.19;;;12.18;100.00
30636;BME280;17400;52.392;9.750;2024-03-29T10:45:05;98885.94;;;12.20;100.00
30636;BME280;17400;52.392;9.750;2024-03-29T10:47:32;98900.38;;;12.26;100.00
30636;BME280;17400;52.392;9.750;2024-03-29T10:50:00;98878.16;;;12.29;100.00
30636;BME280;17400;52.392;9.750;2024-03-29T10:52:28;98877.66;;;12.32;100.00
30636;BME280;17400;52.392;9.750;2024-03-29T10:54:57;98880.94;;;12.34;100.00
30636;BME280;17400;52.392;9.750;2024-03-29T10:57:25;98883.16;;;12.37;100.00
30636;BME280;17400;52.392;9.750;2024-03-29T11:00:00;98880.50;;;12.42;100.00
30636;BME280;17400;52.392;9.750;2024-03-29T11:02:34;98894.16;;;12.53;100.00
30636;BME280;17400;52.392;9.750;2024-03-29T11:05:05;98902.06;;;12.54;100.00
30636;BME280;17400;52.392;9.750;2024-03-29T11:07:34;98898.78;;;12.52;100.00
30636;BME280;17400;52.392;9.750;2024-03-29T11:10:11;98902.88;;;12.55;100.00
30636;BME280;17400;52.392;9.750;2024-03-29T11:12:59;98889.84;;;12.57;100.00
30636;BME280;17400;52.392;9.750;2024-03-29T11:15:30;98904.66;;;12.71;100.00
30636;BME280;17400;52.392;9.750;2024-03-29T11:17:58;98906.31;;;12.72;100.00
30636;BME280;17400;52.392;9.750;2024-03-29T11:20:26;98913.00;;;12.64;100.00
30636;BME280;17400;52.392;9.750;2024-03-29T11:23:02;98912.34;;;12.52;100.00
30636;BME280;17400;52.392;9.750;2024-03-29T11:25:40;98913.81;;;12.38;100.00
30636;BME280;17400;52.392;9.750;2024-03-29T11:28:08;98918.66;;;12.36;100.00
30636;BME280;17400;52.392;9.750;2024-03-29T11:30:42;98910.22;;;12.32;100.00
30636;BME280;17400;52.392;9.750;2024-03-29T11:33:26;98920.22;;;12.31;100.00
30636;BME280;17400;52.392;9.750;2024-03-29T11:35:54;98918.66;;;12.36;100.00
30636;BME280;17400;52.392;9.750;2024-03-29T11:38:21;98918.28;;;12.27;100.00
30636;BME280;17400;52.392;9.750;2024-03-29T11:40:54;98916.91;;;12.24;100.00
30636;BME280;17400;52.392;9.750;2024-03-29T11:43:21;98910.16;;;12.27;100.00
30636;BME280;17400;52.392;9.750;2024-03-29T11:45:49;98914.19;;;12.24;100.00
30636;BME280;17400;52.392;9.750;2024-03-29T11:48:23;98911.53;;;12.29;100.00
30636;BME280;17400;52.392;9.750;2024-03-29T11:50:52;98917.78;;;12.30;100.00
30636;BME280;17400;52.392;9.750;2024-03-29T11:53:19;98915.00;;;12.25;100.00
30636;BME280;17400;52.392;9.750;2024-03-29T11:55:46;98913.13;;;12.25;100.00
30636;BME280;17400;52.392;9.750;2024-03-29T11:58:15;98910.72;;;12.29;100.00
30636;BME280;17400;52.392;9.750;2024-03-29T12:00:42;98898.53;;;12.31;100.00
30636;BME280;17400;52.392;9.750;2024-03-29T12:03:11;98889.91;;;12.35;100.00
30636;BME280;17400;52.392;9.750;2024-03-29T12:05:38;98881.91;;;12.50;100.00
30636;BME280;17400;52.392;9.750;2024-03-29T12:08:05;98887.72;;;12.59;100.00
30636;BME280;17400;52.392;9.750;2024-03-29T12:10:35;98884.25;;;12.63;100.00
30636;BME280;17400;52.392;9.750;2024-03-29T12:13:02;98881.00;;;12.66;100.00
30636;BME280;17400;52.392;9.750;2024-03-29T12:15:30;98886.84;;;12.80;100.00
30636;BME280;17400;52.392;9.750;2024-03-29T12:17:58;98881.25;;;12.92;100.00
30636;BME280;17400;52.392;9.750;2024-03-29T12:20:25;98892.00;;;13.09;100.00
30636;BME280;17400;52.392;9.750;2024-03-29T12:22:52;98888.38;;;13.31;100.00
30636;BME280;17400;52.392;9.750;2024-03-29T12:25:20;98880.88;;;13.43;100.00
30636;BME280;17400;52.392;9.750;2024-03-29T12:27:47;98884.03;;;13.30;100.00
30636;BME280;17400;52.392;9.750;2024-03-29T12:30:14;98895.50;;;13.37;100.00
30636;BME280;17400;52.392;9.750;2024-03-29T12:32:43;98903.00;;;13.25;100.00
30636;BME280;17400;52.392;9.750;2024-03-29T12:35:11;98906.78;;;13.24;100.00
30636;BME280;17400;52.392;9.750;2024-03-29T12:37:47;98926.25;;;13.10;100.00
30636;BME280;17400;52.392;9.750;2024-03-29T12:40:15;98919.47;;;13.13;100.00
30636;BME280;17400;52.392;9.750;2024-03-29T12:42:47;98929.72;;;13.06;100.00
30636;BME280;17400;52.392;9.750;2024-03-29T12:45:15;98928.09;;;13.05;100.00
30636;BME280;17400;52.392;9.750;2024-03-29T12:47:43;98927.84;;;13.06;100.00
30636;BME280;17400;52.392;9.750;2024-03-29T12:50:13;98918.63;;;13.07;100.00
30636;BME280;17400;52.392;9.750;2024-03-29T12:52:40;98915.91;;;13.07;100.00
30636;BME280;17400;52.392;9.750;2024-03-29T12:55:08;98919.22;;;13.14;100.00
30636;BME280;17400;52.392;9.750;2024-03-29T12:57:37;98909.50;;;13.24;100.00
30636;BME280;17400;52.392;9.750;2024-03-29T13:00:07;98921.50;;;13.28;100.00
30636;BME280;17400;52.392;9.750;2024-03-29T13:02:35;98942.97;;;13.29;100.00
30636;BME280;17400;52.392;9.750;2024-03-29T13:05:04;98945.41;;;13.26;100.00
30636;BME280;17400;52.392;9.750;2024-03-29T13:07:31;98944.16;;;13.39;100.00